Aviation Digital Data Service (ADDS)

Output produced by METARs form (1706 UTC 24 April 2017)
found at http://www.aviationweather.gov/adds/metars/
 
GMAD 241700Z 21010KT 170V250 6000 NSC 22/14 Q1011 NOSIG
TAF GMAD 241100Z 2412/2518 28016G24KT 8000 NSC 
     BECMG 2418/2420 20008KT 
       
GMMC 241700Z 34012KT 9999 FEW016 21/16 Q1013 NOSIG
GMFO 241700Z 33016KT 8000 FEW010 SCT030 BKN100 17/14 Q1014 NOSIG
TAF GMFO 241100Z 2412/2518 36016KT 9999 SCT026 SCT100 
     PROB30 
     TEMPO 2416/2505 TSRA BKN020 FEW033CB 
       
GMMW 241700Z 05006KT 360V100 8000 VCTS FEW020 FEW023CB BKN100 18/15 Q1015 NOSIG
TAF GMMW 241100Z 2412/2518 03007KT 6000 BKN020 BKN200 
     PROB40 
     TEMPO 2412/2422 4000 -TSRA SCT016CB 
     PROB40 2423/2507 VRB02KT 2000 BR BKN010
       
GMFM 241700Z 33009KT 6000 SCT00 FEW033CB SCT200 24/14 Q1014 NOSIG
TAF GMFM 241100Z 2412/2518 34004KT 6000 FEW013 BKN016 
     BECMG 2413/2416 FEW013 BKN020 FEW026CB 
     TEMPO 2415/2419 TSRA
       
GMTA 241700Z 34006KT 6000 -RA SCT016 BKN026 16/16 Q1015 NOSIG
TAF GMTA 241100Z 2412/2518 35009KT 8000 BKN015 BKN026 
     PROB40 
     TEMPO 2412/2418 -DZ 
     BECMG 2419/2421 VRB02KT 
     PROB40 2500/2507 2000 BR 
     BECMG 2509/2511 35008KT
       
GMMI 241700Z AUTO VRB14KT 9999NDV ////// 21/13 Q1013 NOSIG
TAF GMMI 241100Z 2412/2518 33009KT 6000 SCT020
       
GMAD 241700Z 21010KT 170V250 6000 NSC 22/14 Q1011 NOSIG
TAF GMAD 241100Z 2412/2518 28016G24KT 8000 NSC 
     BECMG 2418/2420 20008KT 
       
GMAG 241700Z 36014KT 6000 FEW016 24/12 Q1010 NOSIG
GMAT 241700Z 36014KT 8000 FEW013 SCT016 BKN200 20/14 Q1014 NOSIG
GMFF 241700Z 06006KT 010V090 9999 -TS FEW030 SCT040CB 23/15 Q1014 NOSIG
TAF GMFF 241100Z 2412/2518 30010KT 9999 SCT011 BKN026 
     BECMG 2412/2416 SCT013 BKN030 FEW033CB 
     TEMPO 2414/2418 TSRA 
     BECMG 2500/2504 FEW013 BKN030 
     BECMG 2511/2515 SCT013 BKN030 FEW033CB 
     TEMPO 2515/2518 TSRA
       
GMFK 241700Z 24007KT 180V290 9999 SCT026 SCT200 26/01 Q1014 BECMG SCT026 FEW040CB
GMFM 241700Z 33009KT 6000 SCT00 FEW033CB SCT200 24/14 Q1014 NOSIG
TAF GMFM 241100Z 2412/2518 34004KT 6000 FEW013 BKN016 
     BECMG 2413/2416 FEW013 BKN020 FEW026CB 
     TEMPO 2415/2419 TSRA
       
GMFO 241700Z 33016KT 8000 FEW010 SCT030 BKN100 17/14 Q1014 NOSIG
TAF GMFO 241100Z 2412/2518 36016KT 9999 SCT026 SCT100 
     PROB30 
     TEMPO 2416/2505 TSRA BKN020 FEW033CB 
       
GMMB 241700Z 29009KT 260V320 6000 SCT016 BKN200 21/14 Q1015 NOSIG
GMMC 241700Z 34012KT 9999 FEW016 21/16 Q1013 NOSIG
GMMD 241700Z 20011KT 9999 BKN026TCU FEW030CB 25/13 Q1013 NOSIG
GMME 241700Z 31009KT 270V360 6000 FEW020 BKN200 20/13 Q1013 NOSIG
TAF GMME 241100Z 2412/2518 26013KT 6000 BKN020 BKN200 
     PROB40 
     TEMPO 2418/2500 SHRA BKN013 BKN015
       
GMMH 241700Z 36016KT CAVOK 21/15 Q1014 NOSIG
TAF GMMH 241100Z 2412/2518 02018KT 9999 SCT023
       
GMMI 241700Z AUTO VRB14KT 9999NDV ////// 21/13 Q1013 NOSIG
TAF GMMI 241100Z 2412/2518 33009KT 6000 SCT020
       
GMML 241700Z 36016KT CAVOK 24/14 Q1014 NOSIG
TAF GMML 241100Z 2412/2518 02014KT 8000 BKN030
       
GMMN 241700Z 33012KT 9999 SCT016 21/13 Q1014 NOSIG
TAF GMMN 241100Z 2412/2518 34008KT 9999 SCT016 
     BECMG 2418/2422 VRB02KT 
     TEMPO 2502/2508 5000 BKN016 
     BECMG 2508/2511 36012KT
       
GMMW 241700Z 05006KT 360V100 8000 VCTS FEW020 FEW023CB BKN100 18/15 Q1015 NOSIG
TAF GMMW 241100Z 2412/2518 03007KT 6000 BKN020 BKN200 
     PROB40 
     TEMPO 2412/2422 4000 -TSRA SCT016CB 
     PROB40 2423/2507 VRB02KT 2000 BR BKN010
       
GMMX 241700Z 23006KT 190V300 6000 SCT023 SCT200 23/10 Q1013 NOSIG
TAF GMMX 241100Z 2412/2518 24008KT 8000 BKN020 SCT100 
     TEMPO 2412/2421 30016KT 5000 SHRA BKN0026 FEW030CB 
     TEMPO 2506/2510 5000 BKN013
       
GMMZ 241700Z 23014KT 8000 BKN040 SCT230 26/03 Q1013 NOSIG
TAF GMMZ 241100Z 2412/2518 08006KT 8000 NSC 
     TEMPO 2415/2420 08016KT SCT040 FEW050CB
       
GMTA 241700Z 34006KT 6000 -RA SCT016 BKN026 16/16 Q1015 NOSIG
TAF GMTA 241100Z 2412/2518 35009KT 8000 BKN015 BKN026 
     PROB40 
     TEMPO 2412/2418 -DZ 
     BECMG 2419/2421 VRB02KT 
     PROB40 2500/2507 2000 BR 
     BECMG 2509/2511 35008KT
       
GMTN 241700Z 09010KT 6000 SCT010 BKN016 17/14 Q1015 NOSIG
GMTT 241600Z 06013KT 8000 SCT020 BKN200 21/14 Q1013 NOSIG
TAF GMTT 241100Z 2412/2518 28006KT 8000 FEW016BKN200 
     TEMPO 2416/2424 18008KT 
     TEMPO 2500/2508 VRB02KT 3000 BR SCT008 
     BECMG 2508/2511 24008KT 8000 SCT016 SCT100
       
GMTT 241600Z 06013KT 8000 SCT020 BKN200 21/14 Q1013 NOSIG
TAF GMTT 241100Z 2412/2518 28006KT 8000 FEW016BKN200 
     TEMPO 2416/2424 18008KT 
     TEMPO 2500/2508 VRB02KT 3000 BR SCT008 
     BECMG 2508/2511 24008KT 8000 SCT016 SCT100
       
GMMX 241700Z 23006KT 190V300 6000 SCT023 SCT200 23/10 Q1013 NOSIG
TAF GMMX 241100Z 2412/2518 24008KT 8000 BKN020 SCT100 
     TEMPO 2412/2421 30016KT 5000 SHRA BKN0026 FEW030CB 
     TEMPO 2506/2510 5000 BKN013
       
GMMN 241700Z 33012KT 9999 SCT016 21/13 Q1014 NOSIG
TAF GMMN 241100Z 2412/2518 34008KT 9999 SCT016 
     BECMG 2418/2422 VRB02KT 
     TEMPO 2502/2508 5000 BKN016 
     BECMG 2508/2511 36012KT
       
GMFK 241700Z 24007KT 180V290 9999 SCT026 SCT200 26/01 Q1014 BECMG SCT026 FEW040CB
GMMZ 241700Z 23014KT 8000 BKN040 SCT230 26/03 Q1013 NOSIG
TAF GMMZ 241100Z 2412/2518 08006KT 8000 NSC 
     TEMPO 2415/2420 08016KT SCT040 FEW050CB
       
GMAT 241700Z 36014KT 8000 FEW013 SCT016 BKN200 20/14 Q1014 NOSIG
GMFF 241700Z 06006KT 010V090 9999 -TS FEW030 SCT040CB 23/15 Q1014 NOSIG
TAF GMFF 241100Z 2412/2518 30010KT 9999 SCT011 BKN026 
     BECMG 2412/2416 SCT013 BKN030 FEW033CB 
     TEMPO 2414/2418 TSRA 
     BECMG 2500/2504 FEW013 BKN030 
     BECMG 2511/2515 SCT013 BKN030 FEW033CB 
     TEMPO 2515/2518 TSRA
       
GMME 241700Z 31009KT 270V360 6000 FEW020 BKN200 20/13 Q1013 NOSIG
TAF GMME 241100Z 2412/2518 26013KT 6000 BKN020 BKN200 
     PROB40 
     TEMPO 2418/2500 SHRA BKN013 BKN015
       
GMTN 241700Z 09010KT 6000 SCT010 BKN016 17/14 Q1015 NOSIG